sensor_id;sensor_type;location;lat;lon;timestamp;pressure;altitude;pressure_sealevel;temperature;humidity
30554;BME280;17335;50.720;7.452;2023-01-30T00:01:18;99697.63;;;1.05;100.00
30554;BME280;17335;50.720;7.452;2023-01-30T00:03:44;99670.56;;;1.00;100.00
30554;BME280;17335;50.720;7.452;2023-01-30T00:06:11;99680.19;;;1.01;100.00
30554;BME280;17335;50.720;7.452;2023-01-30T00:08:38;99693.09;;;1.07;100.00
30554;BME280;17335;50.720;7.452;2023-01-30T00:11:10;99714.88;;;1.12;100.00
30554;BME280;17335;50.720;7.452;2023-01-30T00:13:37;99688.94;;;1.21;100.00
30554;BME280;17335;50.720;7.452;2023-01-30T00:16:04;99675.63;;;1.22;100.00
30554;BME280;17335;50.720;7.452;2023-01-30T00:18:31;99690.47;;;1.25;100.00
30554;BME280;17335;50.720;7.452;2023-01-30T00:20:59;99671.81;;;1.28;100.00
30554;BME280;17335;50.720;7.452;2023-01-30T00:23:27;99678.81;;;1.29;100.00
30554;BME280;17335;50.720;7.452;2023-01-30T00:25:54;99669.63;;;1.36;100.00
30554;BME280;17335;50.720;7.452;2023-01-30T00:28:21;99667.91;;;1.35;100.00
30554;BME280;17335;50.720;7.452;2023-01-30T00:30:48;99669.31;;;1.42;100.00
30554;BME280;17335;50.720;7.452;2023-01-30T00:33:16;99654.19;;;1.44;100.00
30554;BME280;17335;50.720;7.452;2023-01-30T00:35:44;99638.50;;;1.41;100.00
30554;BME280;17335;50.720;7.452;2023-01-30T00:38:12;99643.31;;;1.50;100.00
30554;BME280;17335;50.720;7.452;2023-01-30T00:40:40;99651.19;;;1.52;100.00
30554;BME280;17335;50.720;7.452;2023-01-30T00:43:10;99640.50;;;1.54;100.00
30554;BME280;17335;50.720;7.452;2023-01-30T00:45:56;99658.63;;;1.61;100.00
30554;BME280;17335;50.720;7.452;2023-01-30T00:48:42;99636.59;;;1.61;100.00
30554;BME280;17335;50.720;7.452;2023-01-30T00:51:08;99625.09;;;1.62;100.00
30554;BME280;17335;50.720;7.452;2023-01-30T00:53:35;99624.06;;;1.64;100.00
30554;BME280;17335;50.720;7.452;2023-01-30T00:56:01;99617.94;;;1.64;100.00
30554;BME280;17335;50.720;7.452;2023-01-30T00:58:28;99632.97;;;1.63;100.00
30554;BME280;17335;50.720;7.452;2023-01-30T01:00:55;99627.56;;;1.65;100.00
30554;BME280;17335;50.720;7.452;2023-01-30T01:03:21;99613.56;;;1.63;100.00
30554;BME280;17335;50.720;7.452;2023-01-30T01:05:48;99603.50;;;1.69;100.00
30554;BME280;17335;50.720;7.452;2023-01-30T01:08:14;99592.84;;;1.71;100.00
30554;BME280;17335;50.720;7.452;2023-01-30T01:10:41;99584.81;;;1.73;100.00
30554;BME280;17335;50.720;7.452;2023-01-30T01:13:08;99588.38;;;1.72;100.00
30554;BME280;17335;50.720;7.452;2023-01-30T01:15:36;99590.97;;;1.73;100.00
30554;BME280;17335;50.720;7.452;2023-01-30T01:18:02;99600.53;;;1.76;100.00
30554;BME280;17335;50.720;7.452;2023-01-30T01:20:29;99600.53;;;1.76;100.00
30554;BME280;17335;50.720;7.452;2023-01-30T01:22:56;99587.22;;;1.77;100.00
30554;BME280;17335;50.720;7.452;2023-01-30T01:25:23;99581.13;;;1.75;100.00
30554;BME280;17335;50.720;7.452;2023-01-30T01:27:50;99580.06;;;1.79;100.00
30554;BME280;17335;50.720;7.452;2023-01-30T01:30:18;99576.38;;;1.82;100.00
30554;BME280;17335;50.720;7.452;2023-01-30T01:32:44;99577.31;;;1.81;100.00
30554;BME280;17335;50.720;7.452;2023-01-30T01:35:11;99579.09;;;1.80;100.00
30554;BME280;17335;50.720;7.452;2023-01-30T01:37:37;99586.88;;;1.83;100.00
30554;BME280;17335;50.720;7.452;2023-01-30T01:40:05;99569.91;;;1.87;100.00
30554;BME280;17335;50.720;7.452;2023-01-30T01:42:50;99578.16;;;1.81;100.00
30554;BME280;17335;50.720;7.452;2023-01-30T01:45:23;99555.97;;;1.84;100.00
30554;BME280;17335;50.720;7.452;2023-01-30T01:48:04;99560.25;;;1.86;100.00
30554;BME280;17335;50.720;7.452;2023-01-30T01:50:48;99556.47;;;1.91;100.00
30554;BME280;17335;50.720;7.452;2023-01-30T01:53:20;99565.38;;;1.90;100.00
30554;BME280;17335;50.720;7.452;2023-01-30T01:55:49;99563.66;;;1.88;100.00
30554;BME280;17335;50.720;7.452;2023-01-30T01:58:48;99549.31;;;1.93;100.00
30554;BME280;17335;50.720;7.452;2023-01-30T02:01:16;99548.28;;;1.95;100.00
30554;BME280;17335;50.720;7.452;2023-01-30T02:03:47;99540.44;;;1.94;100.00
30554;BME280;17335;50.720;7.452;2023-01-30T02:06:15;99555.56;;;1.92;100.00
30554;BME280;17335;50.720;7.452;2023-01-30T02:08:54;99549.31;;;1.93;100.00
30554;BME280;17335;50.720;7.452;2023-01-30T02:11:30;99554.50;;;1.94;100.00
30554;BME280;17335;50.720;7.452;2023-01-30T02:13:59;99557.06;;;1.96;100.00
30554;BME280;17335;50.720;7.452;2023-01-30T02:16:27;99559.56;;;1.99;100.00
30554;BME280;17335;50.720;7.452;2023-01-30T02:18:54;99550.78;;;1.98;100.00
30554;BME280;17335;50.720;7.452;2023-01-30T02:26:52;99542.81;;;1.98;100.00
30554;BME280;17335;50.720;7.452;2023-01-30T02:32:20;99530.34;;;2.00;100.00
30554;BME280;17335;50.720;7.452;2023-01-30T02:38:06;99509.63;;;1.93;100.00
30554;BME280;17335;50.720;7.452;2023-01-30T02:46:16;99499.41;;;2.01;100.00
30554;BME280;17335;50.720;7.452;2023-01-30T02:51:19;99490.31;;;2.06;100.00
30554;BME280;17335;50.720;7.452;2023-01-30T02:53:47;99488.50;;;2.07;100.00
30554;BME280;17335;50.720;7.452;2023-01-30T02:56:14;99484.72;;;2.11;100.00
30554;BME280;17335;50.720;7.452;2023-01-30T02:58:48;99466.28;;;2.10;100.00
30554;BME280;17335;50.720;7.452;2023-01-30T03:12:03;99489.00;;;2.14;100.00
30554;BME280;17335;50.720;7.452;2023-01-30T03:15:03;99497.72;;;2.16;100.00
30554;BME280;17335;50.720;7.452;2023-01-30T03:17:31;99496.00;;;2.15;100.00
30554;BME280;17335;50.720;7.452;2023-01-30T03:19:58;99481.91;;;2.14;100.00
30554;BME280;17335;50.720;7.452;2023-01-30T03:22:25;99482.75;;;2.15;100.00
30554;BME280;17335;50.720;7.452;2023-01-30T03:24:52;99483.72;;;2.14;100.00
30554;BME280;17335;50.720;7.452;2023-01-30T03:27:20;99472.75;;;2.20;100.00
30554;BME280;17335;50.720;7.452;2023-01-30T03:29:47;99471.56;;;2.25;100.00
30554;BME280;17335;50.720;7.452;2023-01-30T03:32:14;99464.72;;;2.21;100.00
30554;BME280;17335;50.720;7.452;2023-01-30T03:34:41;99467.44;;;2.20;100.00
30554;BME280;17335;50.720;7.452;2023-01-30T03:37:07;99472.66;;;2.21;100.00
30554;BME280;17335;50.720;7.452;2023-01-30T03:39:34;99448.66;;;2.24;100.00
30554;BME280;17335;50.720;7.452;2023-01-30T03:42:00;99459.41;;;2.21;100.00
30554;BME280;17335;50.720;7.452;2023-01-30T03:44:27;99446.16;;;2.21;100.00
30554;BME280;17335;50.720;7.452;2023-01-30T03:46:53;99447.97;;;2.21;100.00
30554;BME280;17335;50.720;7.452;2023-01-30T03:49:20;99435.56;;;2.21;100.00
30554;BME280;17335;50.720;7.452;2023-01-30T03:51:47;99441.06;;;2.18;100.00
30554;BME280;17335;50.720;7.452;2023-01-30T03:54:13;99434.66;;;2.22;100.00
30554;BME280;17335;50.720;7.452;2023-01-30T03:56:40;99424.06;;;2.22;100.00
30554;BME280;17335;50.720;7.452;2023-01-30T03:59:06;99423.69;;;2.29;100.00
30554;BME280;17335;50.720;7.452;2023-01-30T04:01:33;99414.97;;;2.27;100.00
30554;BME280;17335;50.720;7.452;2023-01-30T04:03:59;99419.59;;;2.23;100.00
30554;BME280;17335;50.720;7.452;2023-01-30T04:06:26;99404.88;;;2.33;100.00
30554;BME280;17335;50.720;7.452;2023-01-30T04:08:52;99393.03;;;2.39;100.00
30554;BME280;17335;50.720;7.452;2023-01-30T04:11:20;99400.06;;;2.40;100.00
30554;BME280;17335;50.720;7.452;2023-01-30T04:13:46;99401.13;;;2.37;100.00
30554;BME280;17335;50.720;7.452;2023-01-30T04:16:19;99401.13;;;2.37;100.00
30554;BME280;17335;50.720;7.452;2023-01-30T04:18:46;99388.53;;;2.41;100.00
30554;BME280;17335;50.720;7.452;2023-01-30T04:21:13;99389.47;;;2.40;100.00
30554;BME280;17335;50.720;7.452;2023-01-30T04:23:40;99379.44;;;2.45;100.00
30554;BME280;17335;50.720;7.452;2023-01-30T04:26:08;99373.00;;;2.49;100.00
30554;BME280;17335;50.720;7.452;2023-01-30T04:28:35;99370.19;;;2.52;100.00
30554;BME280;17335;50.720;7.452;2023-01-30T04:31:02;99366.69;;;2.52;100.00
30554;BME280;17335;50.720;7.452;2023-01-30T04:33:30;99363.09;;;2.53;100.00
30554;BME280;17335;50.720;7.452;2023-01-30T04:35:58;99361.38;;;2.52;100.00
30554;BME280;17335;50.720;7.452;2023-01-30T04:38:26;99364.13;;;2.50;100.00
30554;BME280;17335;50.720;7.452;2023-01-30T04:40:54;99367.53;;;2.52;100.00
30554;BME280;17335;50.720;7.452;2023-01-30T04:43:22;99371.41;;;2.61;100.00
30554;BME280;17335;50.720;7.452;2023-01-30T04:45:50;99367.72;;;2.63;100.00
30554;BME280;17335;50.720;7.452;2023-01-30T04:48:17;99359.88;;;2.62;100.00
30554;BME280;17335;50.720;7.452;2023-01-30T04:50:47;99364.91;;;2.67;100.00
30554;BME280;17335;50.720;7.452;2023-01-30T04:53:15;99365.56;;;2.70;100.00
30554;BME280;17335;50.720;7.452;2023-01-30T04:55:42;99359.28;;;2.71;100.00
30554;BME280;17335;50.720;7.452;2023-01-30T04:58:08;99356.75;;;2.70;100.00
30554;BME280;17335;50.720;7.452;2023-01-30T05:00:35;99340.47;;;2.76;100.00
30554;BME280;17335;50.720;7.452;2023-01-30T05:03:02;99343.03;;;2.77;100.00
30554;BME280;17335;50.720;7.452;2023-01-30T05:05:28;99351.25;;;2.73;100.00
30554;BME280;17335;50.720;7.452;2023-01-30T05:07:55;99330.34;;;2.83;100.00
30554;BME280;17335;50.720;7.452;2023-01-30T05:10:21;99330.25;;;2.84;100.00
30554;BME280;17335;50.720;7.452;2023-01-30T05:12:48;99333.84;;;2.83;100.00
30554;BME280;17335;50.720;7.452;2023-01-30T05:15:15;99334.56;;;2.85;100.00
30554;BME280;17335;50.720;7.452;2023-01-30T05:17:42;99336.00;;;2.76;100.00
30554;BME280;17335;50.720;7.452;2023-01-30T05:20:11;99331.19;;;2.83;100.00
30554;BME280;17335;50.720;7.452;2023-01-30T05:22:38;99324.28;;;2.80;100.00
30554;BME280;17335;50.720;7.452;2023-01-30T05:25:06;99326.16;;;2.78;100.00
30554;BME280;17335;50.720;7.452;2023-01-30T05:27:32;99324.94;;;2.84;100.00
30554;BME280;17335;50.720;7.452;2023-01-30T05:29:59;99321.97;;;2.89;100.00
30554;BME280;17335;50.720;7.452;2023-01-30T05:32:25;99319.03;;;2.93;100.00
30554;BME280;17335;50.720;7.452;2023-01-30T05:34:52;99321.03;;;2.90;100.00
30554;BME280;17335;50.720;7.452;2023-01-30T05:37:19;99310.34;;;2.91;100.00
30554;BME280;17335;50.720;7.452;2023-01-30T05:39:45;99313.19;;;2.88;100.00
30554;BME280;17335;50.720;7.452;2023-01-30T05:42:13;99306.53;;;2.95;100.00
30554;BME280;17335;50.720;7.452;2023-01-30T05:44:40;99317.56;;;2.89;100.00
30554;BME280;17335;50.720;7.452;2023-01-30T05:47:06;99316.22;;;2.96;100.00
30554;BME280;17335;50.720;7.452;2023-01-30T05:49:33;99304.53;;;2.99;100.00
30554;BME280;17335;50.720;7.452;2023-01-30T05:51:59;99307.28;;;3.12;100.00
30554;BME280;17335;50.720;7.452;2023-01-30T05:54:26;99312.38;;;3.15;100.00
30554;BME280;17335;50.720;7.452;2023-01-30T05:56:52;99323.56;;;3.20;100.00
30554;BME280;17335;50.720;7.452;2023-01-30T05:59:19;99322.59;;;3.21;100.00
30554;BME280;17335;50.720;7.452;2023-01-30T06:01:45;99315.53;;;3.34;100.00
30554;BME280;17335;50.720;7.452;2023-01-30T06:04:12;99326.41;;;3.44;100.00
30554;BME280;17335;50.720;7.452;2023-01-30T06:06:38;99325.00;;;3.38;100.00
30554;BME280;17335;50.720;7.452;2023-01-30T06:09:05;99310.69;;;3.41;100.00
30554;BME280;17335;50.720;7.452;2023-01-30T06:11:31;99312.09;;;3.47;100.00
30554;BME280;17335;50.720;7.452;2023-01-30T06:13:58;99316.91;;;3.54;100.00
30554;BME280;17335;50.720;7.452;2023-01-30T06:16:24;99309.78;;;3.55;100.00
30554;BME280;17335;50.720;7.452;2023-01-30T06:18:51;99305.47;;;3.67;100.00
30554;BME280;17335;50.720;7.452;2023-01-30T06:21:17;99318.28;;;3.60;100.00
30554;BME280;17335;50.720;7.452;2023-01-30T06:23:44;99320.56;;;3.66;100.00
30554;BME280;17335;50.720;7.452;2023-01-30T06:26:11;99309.72;;;3.69;100.00
30554;BME280;17335;50.720;7.452;2023-01-30T06:28:38;99311.44;;;3.70;100.00
30554;BME280;17335;50.720;7.452;2023-01-30T06:31:06;99311.44;;;3.70;100.00
30554;BME280;17335;50.720;7.452;2023-01-30T06:33:33;99319.59;;;3.67;100.00
30554;BME280;17335;50.720;7.452;2023-01-30T06:35:59;99318.66;;;3.68;100.00
30554;BME280;17335;50.720;7.452;2023-01-30T06:38:26;99329.06;;;3.71;100.00
30554;BME280;17335;50.720;7.452;2023-01-30T06:40:52;99324.91;;;3.67;100.00
30554;BME280;17335;50.720;7.452;2023-01-30T06:43:19;99343.19;;;3.72;100.00
30554;BME280;17335;50.720;7.452;2023-01-30T06:45:46;99343.38;;;3.69;100.00
30554;BME280;17335;50.720;7.452;2023-01-30T06:48:12;99352.75;;;3.74;100.00
30554;BME280;17335;50.720;7.452;2023-01-30T06:50:39;99343.94;;;3.74;100.00
30554;BME280;17335;50.720;7.452;2023-01-30T06:53:06;99330.94;;;3.69;100.00
30554;BME280;17335;50.720;7.452;2023-01-30T06:55:34;99328.28;;;3.69;100.00
30554;BME280;17335;50.720;7.452;2023-01-30T06:58:09;99328.09;;;3.72;100.00
30554;BME280;17335;50.720;7.452;2023-01-30T07:00:38;99328.84;;;3.74;100.00
30554;BME280;17335;50.720;7.452;2023-01-30T07:03:09;99332.28;;;3.77;100.00
30554;BME280;17335;50.720;7.452;2023-01-30T07:05:38;99339.25;;;3.78;100.00
30554;BME280;17335;50.720;7.452;2023-01-30T07:08:05;99340.25;;;3.77;100.00
30554;BME280;17335;50.720;7.452;2023-01-30T07:10:31;99352.53;;;3.78;100.00
30554;BME280;17335;50.720;7.452;2023-01-30T07:12:58;99350.34;;;3.84;100.00
30554;BME280;17335;50.720;7.452;2023-01-30T07:15:25;99367.53;;;3.79;100.00
30554;BME280;17335;50.720;7.452;2023-01-30T07:17:51;99367.00;;;3.86;100.00
30554;BME280;17335;50.720;7.452;2023-01-30T07:20:18;99357.47;;;3.84;100.00
30554;BME280;17335;50.720;7.452;2023-01-30T07:22:52;99370.00;;;3.82;100.00
30554;BME280;17335;50.720;7.452;2023-01-30T07:25:20;99357.66;;;3.81;100.00
30554;BME280;17335;50.720;7.452;2023-01-30T07:27:52;99340.00;;;3.80;100.00
30554;BME280;17335;50.720;7.452;2023-01-30T07:30:19;99361.91;;;3.83;100.00
30554;BME280;17335;50.720;7.452;2023-01-30T07:32:53;99366.16;;;3.86;100.00
30554;BME280;17335;50.720;7.452;2023-01-30T07:35:22;99373.69;;;3.79;100.00
30554;BME280;17335;50.720;7.452;2023-01-30T07:37:49;99366.81;;;3.89;100.00
30554;BME280;17335;50.720;7.452;2023-01-30T07:40:18;99360.03;;;3.85;100.00
30554;BME280;17335;50.720;7.452;2023-01-30T07:45:22;99357.03;;;3.90;100.00
30554;BME280;17335;50.720;7.452;2023-01-30T07:47:49;99363.22;;;3.90;100.00
30554;BME280;17335;50.720;7.452;2023-01-30T07:50:16;99370.00;;;3.94;100.00
30554;BME280;17335;50.720;7.452;2023-01-30T07:52:43;99368.00;;;3.98;100.00
30554;BME280;17335;50.720;7.452;2023-01-30T07:55:10;99367.06;;;3.99;100.00
30554;BME280;17335;50.720;7.452;2023-01-30T07:57:37;99360.97;;;3.97;100.00
30554;BME280;17335;50.720;7.452;2023-01-30T08:00:05;99368.75;;;4.00;100.00
30554;BME280;17335;50.720;7.452;2023-01-30T08:02:33;99378.34;;;4.03;100.00
30554;BME280;17335;50.720;7.452;2023-01-30T08:05:00;99380.66;;;4.07;100.00
30554;BME280;17335;50.720;7.452;2023-01-30T08:07:28;99376.41;;;4.05;100.00
30554;BME280;17335;50.720;7.452;2023-01-30T08:09:55;99374.59;;;4.05;100.00
30554;BME280;17335;50.720;7.452;2023-01-30T08:12:22;99363.03;;;4.06;100.00
30554;BME280;17335;50.720;7.452;2023-01-30T08:14:48;99378.63;;;3.98;100.00
30554;BME280;17335;50.720;7.452;2023-01-30T08:17:16;99388.75;;;4.06;100.00
30554;BME280;17335;50.720;7.452;2023-01-30T08:19:42;99378.78;;;4.09;100.00
30554;BME280;17335;50.720;7.452;2023-01-30T08:22:09;99378.97;;;4.06;100.00
30554;BME280;17335;50.720;7.452;2023-01-30T08:24:36;99375.25;;;4.09;100.00
30554;BME280;17335;50.720;7.452;2023-01-30T08:27:02;99374.00;;;4.15;100.00
30554;BME280;17335;50.720;7.452;2023-01-30T08:29:29;99374.75;;;4.17;100.00
30554;BME280;17335;50.720;7.452;2023-01-30T08:31:59;99377.22;;;4.20;100.00
30554;BME280;17335;50.720;7.452;2023-01-30T08:34:26;99362.00;;;4.22;100.00
30554;BME280;17335;50.720;7.452;2023-01-30T08:36:52;99376.22;;;4.21;100.00
30554;BME280;17335;50.720;7.452;2023-01-30T08:39:19;99384.00;;;4.24;100.00
30554;BME280;17335;50.720;7.452;2023-01-30T08:41:47;99376.38;;;4.32;100.00
30554;BME280;17335;50.720;7.452;2023-01-30T08:44:14;99377.75;;;4.25;100.00
30554;BME280;17335;50.720;7.452;2023-01-30T08:46:40;99389.50;;;4.21;100.00
30554;BME280;17335;50.720;7.452;2023-01-30T08:49:07;99391.69;;;4.28;100.00
30554;BME280;17335;50.720;7.452;2023-01-30T08:51:33;99408.84;;;4.23;100.00
30554;BME280;17335;50.720;7.452;2023-01-30T08:54:00;99412.06;;;4.28;100.00
30554;BME280;17335;50.720;7.452;2023-01-30T08:56:26;99392.63;;;4.27;100.00
30554;BME280;17335;50.720;7.452;2023-01-30T08:58:53;99401.66;;;4.38;100.00
30554;BME280;17335;50.720;7.452;2023-01-30T09:01:19;99392.41;;;4.43;100.00
30554;BME280;17335;50.720;7.452;2023-01-30T09:03:46;99390.53;;;4.45;100.00
30554;BME280;17335;50.720;7.452;2023-01-30T09:06:13;99390.31;;;4.48;100.00
30554;BME280;17335;50.720;7.452;2023-01-30T09:08:39;99376.06;;;4.49;100.00
30554;BME280;17335;50.720;7.452;2023-01-30T09:11:06;99385.09;;;4.60;100.00
30554;BME280;17335;50.720;7.452;2023-01-30T09:13:33;99393.94;;;4.60;100.00
30554;BME280;17335;50.720;7.452;2023-01-30T09:16:00;99392.00;;;4.62;100.00
30554;BME280;17335;50.720;7.452;2023-01-30T09:18:27;99399.25;;;4.60;100.00
30554;BME280;17335;50.720;7.452;2023-01-30T09:21:01;99397.75;;;4.69;100.00
30554;BME280;17335;50.720;7.452;2023-01-30T09:23:28;99394.78;;;4.74;100.00
30554;BME280;17335;50.720;7.452;2023-01-30T09:25:54;99407.56;;;4.81;100.00
30554;BME280;17335;50.720;7.452;2023-01-30T09:28:21;99400.63;;;4.92;100.00
30554;BME280;17335;50.720;7.452;2023-01-30T09:30:47;99401.38;;;4.94;100.00
30554;BME280;17335;50.720;7.452;2023-01-30T09:33:14;99407.00;;;5.02;100.00
30554;BME280;17335;50.720;7.452;2023-01-30T09:35:46;99404.84;;;5.07;100.00
30554;BME280;17335;50.720;7.452;2023-01-30T09:38:13;99384.25;;;5.11;100.00
30554;BME280;17335;50.720;7.452;2023-01-30T09:46:33;99388.47;;;5.26;100.00
30554;BME280;17335;50.720;7.452;2023-01-30T09:54:46;99373.56;;;5.23;100.00
30554;BME280;17335;50.720;7.452;2023-01-30T09:57:18;99377.31;;;5.21;100.00
30554;BME280;17335;50.720;7.452;2023-01-30T10:00:02;99378.97;;;5.22;100.00
30554;BME280;17335;50.720;7.452;2023-01-30T10:02:50;99372.78;;;5.34;100.00
30554;BME280;17335;50.720;7.452;2023-01-30T10:05:18;99365.19;;;5.41;100.00
30554;BME280;17335;50.720;7.452;2023-01-30T10:07:54;99365.81;;;5.44;100.00
30554;BME280;17335;50.720;7.452;2023-01-30T10:21:34;99337.16;;;5.96;100.00
30554;BME280;17335;50.720;7.452;2023-01-30T10:26:44;99374.75;;;6.05;100.00
30554;BME280;17335;50.720;7.452;2023-01-30T10:30:17;99366.81;;;5.92;100.00
30554;BME280;17335;50.720;7.452;2023-01-30T10:32:29;99356.25;;;5.90;100.00
30554;BME280;17335;50.720;7.452;2023-01-30T10:35:01;99350.44;;;5.85;100.00
30554;BME280;17335;50.720;7.452;2023-01-30T10:37:33;99366.63;;;5.82;100.00
30554;BME280;17335;50.720;7.452;2023-01-30T10:40:18;99365.31;;;5.88;100.00
30554;BME280;17335;50.720;7.452;2023-01-30T10:46:00;99366.19;;;5.88;100.00
30554;BME280;17335;50.720;7.452;2023-01-30T10:48:43;99373.91;;;5.80;100.00
30554;BME280;17335;50.720;7.452;2023-01-30T10:51:44;99371.97;;;5.82;100.00
30554;BME280;17335;50.720;7.452;2023-01-30T10:54:28;99359.25;;;5.86;100.00
30554;BME280;17335;50.720;7.452;2023-01-30T10:57:18;99380.03;;;5.93;100.00
30554;BME280;17335;50.720;7.452;2023-01-30T11:03:00;99374.28;;;5.87;100.00
30554;BME280;17335;50.720;7.452;2023-01-30T11:05:39;99377.34;;;5.93;100.00
30554;BME280;17335;50.720;7.452;2023-01-30T11:08:22;99377.13;;;5.96;100.00
30554;BME280;17335;50.720;7.452;2023-01-30T11:10:51;99392.28;;;5.96;100.00
30554;BME280;17335;50.720;7.452;2023-01-30T11:13:20;99378.75;;;5.86;100.00
30554;BME280;17335;50.720;7.452;2023-01-30T11:15:50;99397.88;;;5.80;100.00
30554;BME280;17335;50.720;7.452;2023-01-30T11:18:19;99378.75;;;5.86;100.00
30554;BME280;17335;50.720;7.452;2023-01-30T11:21:11;99395.00;;;5.83;100.00
30554;BME280;17335;50.720;7.452;2023-01-30T11:23:42;99367.25;;;5.86;100.00
30554;BME280;17335;50.720;7.452;2023-01-30T11:26:35;99400.06;;;5.86;100.00
30554;BME280;17335;50.720;7.452;2023-01-30T11:29:24;99404.94;;;5.92;100.00
30554;BME280;17335;50.720;7.452;2023-01-30T11:31:52;99384.94;;;5.87;100.00
30554;BME280;17335;50.720;7.452;2023-01-30T11:34:21;99379.41;;;5.90;100.00
30554;BME280;17335;50.720;7.452;2023-01-30T11:36:48;99378.53;;;5.89;100.00
30554;BME280;17335;50.720;7.452;2023-01-30T11:44:33;99380.47;;;5.87;100.00
30554;BME280;17335;50.720;7.452;2023-01-30T11:47:07;99372.47;;;5.87;100.00
30554;BME280;17335;50.720;7.452;2023-01-30T11:49:39;99383.34;;;5.84;100.00
30554;BME280;17335;50.720;7.452;2023-01-30T11:52:35;99376.34;;;5.83;100.00
30554;BME280;17335;50.720;7.452;2023-01-30T11:55:06;99379.94;;;5.82;100.00
30554;BME280;17335;50.720;7.452;2023-01-30T11:57:40;99370.91;;;5.85;100.00
30554;BME280;17335;50.720;7.452;2023-01-30T12:00:38;99396.66;;;5.84;100.00
30554;BME280;17335;50.720;7.452;2023-01-30T12:03:10;99390.00;;;5.78;100.00
30554;BME280;17335;50.720;7.452;2023-01-30T12:05:38;99375.84;;;5.78;100.00
30554;BME280;17335;50.720;7.452;2023-01-30T12:08:21;99382.09;;;5.77;100.00
30554;BME280;17335;50.720;7.452;2023-01-30T12:11:24;99371.34;;;5.78;100.00
30554;BME280;17335;50.720;7.452;2023-01-30T12:13:54;99374.84;;;5.79;100.00
30554;BME280;17335;50.720;7.452;2023-01-30T12:20:04;99384.56;;;5.80;100.00
30554;BME280;17335;50.720;7.452;2023-01-30T12:22:31;99384.34;;;5.83;100.00
30554;BME280;17335;50.720;7.452;2023-01-30T12:25:09;99374.28;;;5.87;100.00
30554;BME280;17335;50.720;7.452;2023-01-30T12:28:03;99375.47;;;5.82;100.00
30554;BME280;17335;50.720;7.452;2023-01-30T12:30:37;99394.50;;;5.89;100.00
30554;BME280;17335;50.720;7.452;2023-01-30T12:33:11;99391.34;;;5.84;100.00
30554;BME280;17335;50.720;7.452;2023-01-30T12:35:50;99384.78;;;5.77;100.00
30554;BME280;17335;50.720;7.452;2023-01-30T12:39:01;99382.63;;;5.82;100.00
30554;BME280;17335;50.720;7.452;2023-01-30T12:44:45;99382.00;;;5.78;100.00
30554;BME280;17335;50.720;7.452;2023-01-30T12:58:03;99384.78;;;5.77;100.00
30554;BME280;17335;50.720;7.452;2023-01-30T13:06:36;99417.34;;;5.80;100.00
30554;BME280;17335;50.720;7.452;2023-01-30T13:14:54;99412.94;;;5.68;100.00
30554;BME280;17335;50.720;7.452;2023-01-30T13:20:04;99418.44;;;5.78;100.00
30554;BME280;17335;50.720;7.452;2023-01-30T13:25:49;99415.81;;;6.02;100.00
30554;BME280;17335;50.720;7.452;2023-01-30T13:28:24;99422.22;;;5.99;100.00
30554;BME280;17335;50.720;7.452;2023-01-30T13:30:52;99420.72;;;5.95;100.00
30554;BME280;17335;50.720;7.452;2023-01-30T13:33:48;99425.88;;;5.86;100.00
30554;BME280;17335;50.720;7.452;2023-01-30T13:38:58;99440.16;;;5.85;100.00
30554;BME280;17335;50.720;7.452;2023-01-30T13:41:29;99446.13;;;5.88;100.00
30554;BME280;17335;50.720;7.452;2023-01-30T13:43:57;99452.06;;;5.92;100.00
30554;BME280;17335;50.720;7.452;2023-01-30T13:46:26;99459.19;;;6.04;100.00
30554;BME280;17335;50.720;7.452;2023-01-30T13:49:03;99446.94;;;6.01;100.00
30554;BME280;17335;50.720;7.452;2023-01-30T13:52:06;99454.41;;;5.96;100.00
30554;BME280;17335;50.720;7.452;2023-01-30T13:57:45;99432.69;;;5.90;100.00
30554;BME280;17335;50.720;7.452;2023-01-30T14:08:16;99459.13;;;5.80;100.00
30554;BME280;17335;50.720;7.452;2023-01-30T14:10:46;99454.97;;;5.76;100.00
30554;BME280;17335;50.720;7.452;2023-01-30T14:13:14;99472.69;;;5.77;100.00
30554;BME280;17335;50.720;7.452;2023-01-30T14:15:57;99459.53;;;5.87;100.00
30554;BME280;17335;50.720;7.452;2023-01-30T14:18:30;99475.75;;;5.83;100.00
30554;BME280;17335;50.720;7.452;2023-01-30T14:21:21;99479.03;;;5.87;100.00
30554;BME280;17335;50.720;7.452;2023-01-30T14:24:03;99472.97;;;5.85;100.00
30554;BME280;17335;50.720;7.452;2023-01-30T14:45:56;99514.34;;;5.78;100.00
30554;BME280;17335;50.720;7.452;2023-01-30T14:54:19;99520.09;;;5.72;100.00
30554;BME280;17335;50.720;7.452;2023-01-30T14:56:58;99512.44;;;5.67;100.00
30554;BME280;17335;50.720;7.452;2023-01-30T15:07:15;99536.41;;;5.67;100.00
30554;BME280;17335;50.720;7.452;2023-01-30T15:09:49;99530.84;;;5.70;100.00
30554;BME280;17335;50.720;7.452;2023-01-30T15:12:28;99534.69;;;5.79;100.00
30554;BME280;17335;50.720;7.452;2023-01-30T15:15:23;99529.66;;;5.87;100.00
30554;BME280;17335;50.720;7.452;2023-01-30T15:23:42;99539.69;;;5.83;100.00
30554;BME280;17335;50.720;7.452;2023-01-30T15:26:20;99559.84;;;5.75;100.00
30554;BME280;17335;50.720;7.452;2023-01-30T15:32:00;99559.97;;;5.60;100.00
30554;BME280;17335;50.720;7.452;2023-01-30T15:34:29;99563.16;;;5.66;100.00
30554;BME280;17335;50.720;7.452;2023-01-30T15:36:57;99578.84;;;5.57;100.00
30554;BME280;17335;50.720;7.452;2023-01-30T15:39:25;99576.16;;;5.57;100.00
30554;BME280;17335;50.720;7.452;2023-01-30T15:41:56;99576.81;;;5.61;100.00
30554;BME280;17335;50.720;7.452;2023-01-30T15:50:08;99591.94;;;5.60;100.00
30554;BME280;17335;50.720;7.452;2023-01-30T15:52:40;99583.28;;;5.57;100.00
30554;BME280;17335;50.720;7.452;2023-01-30T15:55:23;99589.59;;;5.56;100.00
30554;BME280;17335;50.720;7.452;2023-01-30T15:57:55;99591.28;;;5.57;100.00
30554;BME280;17335;50.720;7.452;2023-01-30T16:00:32;99595.22;;;5.51;100.00
30554;BME280;17335;50.720;7.452;2023-01-30T16:03:01;99597.47;;;5.57;100.00
30554;BME280;17335;50.720;7.452;2023-01-30T16:05:29;99599.25;;;5.57;100.00